Time;durP1;ratioP1;P1;durP2;ratioP2;P2;SDS_P1;SDS_P2;PMS_P1;PMS_P2;Temp;Humidity;BMP_temperature;BMP_pressure;BME280_temperature;BME280_humidity;BME280_pressure;Samples;Min_cycle;Max_cycle;Signal;HPM_P1;HPM_P2
2021/08/24 00:05:28;;;;;;;7.62;4.55;;;;;;;22.39;100.00;98982.88;4541442;77;28488;-85
2021/08/24 00:11:33;;;;;;;9.00;4.87;;;;;;;22.62;100.00;98989.73;4542067;78;28491;-85
2021/08/24 00:17:32;;;;;;;12.25;5.42;;;;;;;22.34;100.00;98981.65;4541369;77;28554;-85
2021/08/24 00:23:33;;;;;;;9.25;5.70;;;;;;;22.40;100.00;98976.27;4542066;77;28511;-86
2021/08/24 00:29:35;;;;;;;8.70;4.90;;;;;;;22.32;100.00;98972.91;4516987;78;28485;-84
2021/08/24 00:35:39;;;;;;;10.65;5.65;;;;;;;22.20;100.00;98972.12;4520400;79;28500;-85
2021/08/24 00:41:40;;;;;;;9.20;6.00;;;;;;;22.27;100.00;98971.10;4522655;77;28453;-84
2021/08/24 00:47:46;;;;;;;10.18;5.85;;;;;;;22.51;100.00;98973.56;4587983;77;28460;-84
2021/08/24 00:53:50;;;;;;;10.50;5.90;;;;;;;22.21;100.00;98971.79;4591813;76;28480;-85
2021/08/24 00:59:52;;;;;;;12.13;6.20;;;;;;;22.30;100.00;98977.34;4592133;77;28465;-84
2021/08/24 01:05:59;;;;;;;7.67;5.72;;;;;;;22.29;100.00;98988.05;4592494;77;28536;-85
2021/08/24 01:12:26;;;;;;;;;;;;;;;22.35;100.00;98986.00;4598620;77;28488;-86
2021/08/24 01:18:52;;;;;;;9.53;6.00;;;;;;;22.28;100.00;98982.30;4588426;77;20630;-86
2021/08/24 01:24:58;;;;;;;9.37;5.93;;;;;;;22.42;100.00;98973.48;4548247;76;28546;-86
2021/08/24 01:31:28;;;;;;;11.77;6.17;;;;;;;22.55;100.00;98977.86;4536278;76;28463;-86
2021/08/24 01:37:50;;;;;;;8.48;5.28;;;;;;;22.60;100.00;98975.55;4572518;77;28467;-86
2021/08/24 01:44:09;;;;;;;9.80;5.42;;;;;;;22.41;100.00;98983.38;4524557;79;28553;-86
2021/08/24 01:50:35;;;;;;;8.05;5.53;;;;;;;22.59;100.00;98978.84;4527447;77;28510;-85
2021/08/24 01:56:38;;;;;;;8.95;5.20;;;;;;;22.35;100.00;98970.94;4525478;79;28505;-85
2021/08/24 02:02:54;;;;;;;11.25;6.58;;;;;;;22.46;100.00;98981.06;4532186;77;28442;-85
2021/08/24 02:09:00;;;;;;;12.10;7.12;;;;;;;22.32;100.00;98977.02;4549581;77;28477;-85
2021/08/24 02:15:03;;;;;;;11.20;6.97;;;;;;;22.23;100.00;98969.58;4538626;78;28565;-85
2021/08/24 02:21:16;;;;;;;14.23;7.22;;;;;;;22.32;100.00;98964.70;4561400;78;28512;-85
2021/08/24 02:27:23;;;;;;;15.30;7.80;;;;;;;22.34;100.00;98959.16;4560601;78;28523;-86
2021/08/24 02:33:31;;;;;;;14.40;8.73;;;;;;;22.34;100.00;98950.16;4566942;77;28473;-86
2021/08/24 02:40:09;;;;;;;12.18;7.55;;;;;;;22.39;100.00;98941.80;4472880;78;28513;-85
2021/08/24 02:46:25;;;;;;;14.20;7.67;;;;;;;22.75;100.00;98943.63;4429325;80;28476;-85
2021/08/24 02:52:26;;;;;;;12.47;7.83;;;;;;;22.81;100.00;98945.70;4428890;80;28502;-86
2021/08/24 02:58:29;;;;;;;14.70;8.13;;;;;;;22.71;100.00;98942.65;4485753;78;28526;-85
2021/08/24 03:04:31;;;;;;;9.93;7.20;;;;;;;22.85;100.00;98942.55;4512587;78;28512;-85
2021/08/24 03:10:36;;;;;;;12.60;7.33;;;;;;;22.82;100.00;98935.77;4512778;78;28507;-82
2021/08/24 03:16:42;;;;;;;11.03;7.15;;;;;;;22.78;100.00;98932.05;4512731;78;28880;-87
2021/08/24 03:22:49;;;;;;;10.88;7.12;;;;;;;22.75;100.00;98931.29;4502252;77;28468;-86
2021/08/24 03:28:50;;;;;;;;;;;;;;;22.78;100.00;98940.27;4575551;77;28483;-85
2021/08/24 03:34:52;;;;;;;17.37;9.30;;;;;;;22.84;100.00;98946.42;4599403;76;20184;-84
2021/08/24 03:40:53;;;;;;;15.63;8.50;;;;;;;22.36;100.00;98950.64;4596889;77;28535;-84
2021/08/24 03:46:54;;;;;;;16.23;9.03;;;;;;;22.25;100.00;98949.53;4598932;77;28580;-85
2021/08/24 03:52:56;;;;;;;18.40;10.65;;;;;;;22.20;100.00;98951.01;4599665;77;28519;-86
2021/08/24 03:58:57;;;;;;;20.97;9.75;;;;;;;22.16;100.00;98959.61;4594834;77;28461;-86
2021/08/24 04:05:02;;;;;;;15.60;9.78;;;;;;;22.45;100.00;98961.65;4598712;77;28490;-85
2021/08/24 04:11:07;;;;;;;17.62;10.82;;;;;;;22.77;100.00;98970.17;4598987;77;28541;-85
2021/08/24 04:17:09;;;;;;;20.12;11.20;;;;;;;22.36;100.00;98978.03;4599427;77;28507;-86
2021/08/24 04:23:19;;;;;;;26.77;11.50;;;;;;;22.32;100.00;98984.69;4598850;77;28467;-87
2021/08/24 04:29:21;;;;;;;18.95;11.93;;;;;;;22.36;100.00;98983.51;4567720;76;28492;-86
2021/08/24 04:35:22;;;;;;;18.65;10.58;;;;;;;22.53;100.00;98983.64;4581002;77;28575;-87
2021/08/24 04:41:27;;;;;;;16.77;10.72;;;;;;;22.34;100.00;98993.39;4572689;77;28441;-86
2021/08/24 04:47:28;;;;;;;18.23;11.22;;;;;;;22.29;100.00;99000.38;4541947;76;28559;-85
2021/08/24 04:53:29;;;;;;;19.23;11.28;;;;;;;22.26;100.00;99009.19;4593009;77;28516;-85
2021/08/24 04:59:32;;;;;;;19.40;11.33;;;;;;;22.37;100.00;99009.20;4591927;77;28625;-86
2021/08/24 05:05:34;;;;;;;20.20;11.95;;;;;;;22.32;100.00;99013.98;4512191;77;28422;-87
2021/08/24 05:11:36;;;;;;;21.27;11.45;;;;;;;22.26;100.00;99017.41;4544254;77;28508;-83
2021/08/24 05:17:37;;;;;;;20.37;11.60;;;;;;;22.24;100.00;99028.69;4556260;77;28466;-80
2021/08/24 05:23:41;;;;;;;19.20;11.00;;;;;;;22.21;100.00;99034.77;4589330;77;28555;-80
2021/08/24 05:29:43;;;;;;;19.98;11.68;;;;;;;22.33;100.00;99039.70;4578240;77;28510;-81
2021/08/24 05:35:44;;;;;;;19.02;10.90;;;;;;;22.26;100.00;99043.42;4580317;77;28551;-80
2021/08/24 05:41:46;;;;;;;18.17;10.13;;;;;;;22.12;100.00;99048.39;4580668;77;28551;-81
2021/08/24 05:47:47;;;;;;;19.92;11.75;;;;;;;22.56;100.00;99046.59;4578905;77;28453;-84
2021/08/24 05:53:50;;;;;;;16.73;10.68;;;;;;;22.28;100.00;99058.43;4579981;77;28511;-86
2021/08/24 05:59:52;;;;;;;16.67;10.30;;;;;;;22.25;100.00;99059.06;4581808;77;28476;-81
2021/08/24 06:05:53;;;;;;;14.85;10.45;;;;;;;22.13;100.00;99060.16;4548779;76;28449;-83
2021/08/24 06:11:55;;;;;;;15.60;10.53;;;;;;;21.92;100.00;99060.61;4565948;77;28448;-83
2021/08/24 06:17:56;;;;;;;12.40;8.05;;;;;;;21.95;100.00;99074.22;4570674;77;28556;-83
2021/08/24 06:23:58;;;;;;;14.25;9.43;;;;;;;21.94;100.00;99084.38;4573894;77;28430;-83
2021/08/24 06:30:00;;;;;;;15.80;9.63;;;;;;;21.91;100.00;99087.70;4548143;77;28526;-82
2021/08/24 06:36:01;;;;;;;12.73;8.83;;;;;;;21.64;100.00;99083.02;4569249;77;28433;-83
2021/08/24 06:42:05;;;;;;;14.83;9.55;;;;;;;21.25;100.00;99085.13;4571041;77;28501;-81
2021/08/24 06:48:06;;;;;;;10.45;6.42;;;;;;;21.51;100.00;99089.56;4570956;78;28500;-83
2021/08/24 06:54:08;;;;;;;3.60;2.40;;;;;;;20.97;100.00;99100.09;4571367;78;28571;-79
2021/08/24 07:00:17;;;;;;;1.80;1.20;;;;;;;21.09;100.00;99096.89;4570693;77;28508;-83
2021/08/24 07:06:19;;;;;;;1.72;0.90;;;;;;;20.91;100.00;99097.20;4557651;77;28538;-82
2021/08/24 07:12:20;;;;;;;2.08;1.00;;;;;;;20.97;100.00;99102.28;4537874;77;28520;-78
2021/08/24 07:18:23;;;;;;;0.70;0.60;;;;;;;20.92;100.00;99107.81;4401719;79;28623;-81
2021/08/24 07:24:25;;;;;;;1.40;0.90;;;;;;;20.71;100.00;99105.95;4397656;79;28473;-84
2021/08/24 07:30:26;;;;;;;0.88;0.65;;;;;;;20.42;100.00;99116.47;4335186;79;28495;-77
2021/08/24 07:36:28;;;;;;;0.75;0.55;;;;;;;20.74;100.00;99123.92;4469183;79;28531;-78
2021/08/24 07:42:29;;;;;;;0.65;0.50;;;;;;;20.62;100.00;99142.70;4588653;76;28627;-79
2021/08/24 07:48:31;;;;;;;1.20;0.40;;;;;;;21.07;100.00;99146.95;4558586;76;28527;-80
2021/08/24 07:54:33;;;;;;;0.90;0.50;;;;;;;20.71;100.00;99144.98;4565817;76;28459;-80
2021/08/24 08:00:40;;;;;;;0.30;0.30;;;;;;;21.06;100.00;99148.06;4557857;76;28566;-84
2021/08/24 08:06:42;;;;;;;0.20;0.20;;;;;;;20.84;100.00;99169.42;4567044;76;28490;-80
2021/08/24 08:12:43;;;;;;;0.50;0.33;;;;;;;20.30;100.00;99181.05;4559116;76;28512;-79
2021/08/24 08:18:45;;;;;;;0.50;0.40;;;;;;;20.25;100.00;99183.30;4557813;76;28486;-80
2021/08/24 08:24:46;;;;;;;0.40;0.40;;;;;;;20.64;100.00;99177.89;4558584;77;28461;-80
2021/08/24 08:30:48;;;;;;;1.50;0.30;;;;;;;20.26;100.00;99190.95;4563882;76;28471;-79
2021/08/24 08:36:50;;;;;;;1.57;0.60;;;;;;;20.13;100.00;99202.02;4564916;76;28503;-79
2021/08/24 08:43:09;;;;;;;1.62;0.40;;;;;;;20.36;100.00;99207.73;4557591;76;28455;-78
2021/08/24 08:49:49;;;;;;;0.85;0.40;;;;;;;20.26;100.00;99223.16;4554689;76;28503;-79
2021/08/24 08:56:27;;;;;;;0.30;0.30;;;;;;;20.15;100.00;99235.28;4542565;76;28482;-81
2021/08/24 09:02:57;;;;;;;0.90;0.60;;;;;;;19.69;100.00;99251.00;4472987;77;28523;-78
2021/08/24 09:09:02;;;;;;;0.40;0.30;;;;;;;19.46;100.00;99269.73;4557980;77;28488;-78
2021/08/24 09:15:06;;;;;;;0.62;0.30;;;;;;;19.52;100.00;99270.51;4464626;78;28511;-78
2021/08/24 09:21:12;;;;;;;0.78;0.45;;;;;;;19.36;100.00;99278.79;4462919;78;28498;-77
2021/08/24 09:27:37;;;;;;;2.17;0.40;;;;;;;20.01;100.00;99279.64;4480918;77;28537;-77
2021/08/24 09:33:38;;;;;;;0.57;0.40;;;;;;;19.86;100.00;99284.66;4404727;79;28496;-77
2021/08/24 09:40:02;;;;;;;0.65;0.42;;;;;;;20.09;100.00;99293.20;4364250;79;28568;-78
2021/08/24 09:46:08;;;;;;;1.82;0.50;;;;;;;19.36;100.00;99311.50;4368425;79;28463;-78
2021/08/24 09:52:23;;;;;;;1.07;0.50;;;;;;;19.59;100.00;99302.36;4362983;79;28595;-81
2021/08/24 09:58:41;;;;;;;0.80;0.60;;;;;;;19.22;100.00;99311.34;4378916;79;28451;-81
2021/08/24 10:04:54;;;;;;;0.68;0.50;;;;;;;19.33;100.00;99318.09;4500086;77;28486;-81
2021/08/24 10:11:09;;;;;;;1.15;0.55;;;;;;;19.70;100.00;99315.35;4485271;77;28486;-79
2021/08/24 10:17:33;;;;;;;1.15;0.60;;;;;;;19.76;100.00;99324.30;4498727;77;28471;-79
2021/08/24 10:23:45;;;;;;;1.72;0.70;;;;;;;19.41;100.00;99335.75;4513751;77;28486;-81
2021/08/24 10:29:52;;;;;;;1.12;0.80;;;;;;;19.08;100.00;99343.84;4490755;77;28468;-80
2021/08/24 10:36:05;;;;;;;1.72;0.80;;;;;;;19.21;100.00;99346.52;4481196;78;28495;-80
2021/08/24 10:42:23;;;;;;;1.72;1.00;;;;;;;19.69;100.00;99352.48;4478992;79;28443;-81
2021/08/24 10:48:25;;;;;;;0.98;0.82;;;;;;;19.36;100.00;99359.21;4487943;78;28523;-80
2021/08/24 10:54:50;;;;;;;2.20;1.20;;;;;;;19.72;100.00;99362.25;4473554;78;28445;-79
2021/08/24 11:01:09;;;;;;;2.22;1.40;;;;;;;19.43;100.00;99381.27;4441515;78;28523;-79
2021/08/24 11:07:43;;;;;;;4.00;1.40;;;;;;;19.30;100.00;99387.61;4464921;78;28548;-77
2021/08/24 11:14:02;;;;;;;2.62;1.27;;;;;;;18.89;100.00;99417.16;4457738;78;28454;-77
2021/08/24 11:20:09;;;;;;;3.65;1.37;;;;;;;18.77;100.00;99399.79;4447511;79;28457;-79
2021/08/24 11:26:45;;;;;;;2.87;1.20;;;;;;;18.84;100.00;99404.94;4467899;78;28501;-79
2021/08/24 11:32:51;;;;;;;2.22;1.50;;;;;;;18.27;100.00;99421.92;4488759;78;43219;-79
2021/08/24 11:39:07;;;;;;;1.85;1.37;;;;;;;17.91;100.00;99419.45;4467419;78;28458;-79
2021/08/24 11:45:25;;;;;;;2.47;1.47;;;;;;;18.63;100.00;99429.50;4417826;79;28555;-78
2021/08/24 11:51:32;;;;;;;3.40;1.40;;;;;;;18.62;100.00;99445.57;4389898;79;28551;-78
2021/08/24 11:58:02;;;;;;;1.67;1.12;;;;;;;19.00;100.00;99456.13;4405792;79;28457;-80
2021/08/24 12:04:07;;;;;;;1.60;1.12;;;;;;;18.71;100.00;99468.97;4357785;79;28534;-80
2021/08/24 12:10:29;;;;;;;1.98;1.17;;;;;;;18.48;100.00;99475.26;4400159;79;28460;-81
2021/08/24 12:16:33;;;;;;;2.67;1.25;;;;;;;18.04;100.00;99479.88;4453743;77;28510;-80
2021/08/24 12:22:57;;;;;;;3.98;1.40;;;;;;;18.46;100.00;99484.78;4386091;80;28493;-79
2021/08/24 12:29:36;;;;;;;3.52;1.42;;;;;;;18.50;100.00;99496.22;4432115;79;28518;-79
2021/08/24 12:35:41;;;;;;;2.67;1.10;;;;;;;19.02;100.00;99508.44;4416011;79;28588;-79
2021/08/24 12:41:45;;;;;;;1.45;1.10;;;;;;;18.48;100.00;99522.07;4424145;79;28498;-79
2021/08/24 12:48:09;;;;;;;2.60;1.65;;;;;;;18.99;100.00;99524.48;4511433;77;28453;-81
2021/08/24 12:54:13;;;;;;;4.08;1.57;;;;;;;19.21;100.00;99540.56;4534674;77;28455;-79
2021/08/24 13:00:27;;;;;;;2.85;1.40;;;;;;;19.42;100.00;99546.78;4557358;77;28558;-78
2021/08/24 13:06:32;;;;;;;2.65;1.65;;;;;;;19.43;100.00;99554.40;4560581;76;28451;-79
2021/08/24 13:12:39;;;;;;;2.97;1.30;;;;;;;19.31;100.00;99557.42;4553367;76;28467;-80
2021/08/24 13:18:47;;;;;;;3.05;1.20;;;;;;;19.88;100.00;99568.13;4536423;76;28444;-79
2021/08/24 13:24:50;;;;;;;2.52;1.25;;;;;;;19.81;100.00;99571.17;4512444;77;28575;-79
2021/08/24 13:31:00;;;;;;;1.72;1.27;;;;;;;18.73;100.00;99578.44;4458434;78;28535;-78
2021/08/24 13:37:02;;;;;;;4.45;1.52;;;;;;;19.15;100.00;99582.00;4355003;80;28540;-79
2021/08/24 13:43:04;;;;;;;3.05;1.82;;;;;;;19.26;100.00;99584.70;4546403;77;28478;-76
2021/08/24 13:49:09;;;;;;;2.17;1.72;;;;;;;19.03;100.00;99596.46;4542059;76;28515;-77
2021/08/24 13:55:31;;;;;;;2.72;1.57;;;;;;;19.33;100.00;99606.49;4531792;76;28509;-79
2021/08/24 14:01:39;;;;;;;4.22;1.80;;;;;;;19.75;100.00;99605.84;4531547;77;28507;-78
2021/08/24 14:07:42;;;;;;;4.00;1.62;;;;;;;19.59;100.00;99615.98;4551430;76;28476;-78
2021/08/24 14:13:44;;;;;;;4.47;1.72;;;;;;;19.56;100.00;99619.81;4560713;76;28501;-77
2021/08/24 14:19:47;;;;;;;2.87;1.70;;;;;;;19.59;100.00;99617.35;4453857;79;28564;-77
2021/08/24 14:25:53;;;;;;;2.85;1.70;;;;;;;19.89;100.00;99627.06;4556968;76;28448;-76
2021/08/24 14:31:59;;;;;;;2.55;1.70;;;;;;;19.62;100.00;99624.14;4566171;76;28571;-77
2021/08/24 14:38:00;;;;;;;4.10;1.92;;;;;;;19.29;100.00;99626.40;4570176;76;28508;-77
2021/08/24 14:44:19;;;;;;;3.62;2.00;;;;;;;19.44;100.00;99620.10;4565505;76;28521;-78
2021/08/24 14:50:34;;;;;;;2.80;1.47;;;;;;;19.63;100.00;99621.14;4571117;76;28461;-79
2021/08/24 14:56:39;;;;;;;2.75;1.62;;;;;;;19.10;100.00;99633.77;4553024;76;28454;-78
2021/08/24 15:02:46;;;;;;;1.77;1.10;;;;;;;19.39;100.00;99644.66;4553783;76;28537;-79
2021/08/24 15:08:47;;;;;;;1.30;1.17;;;;;;;17.92;100.00;99666.41;4576025;76;28512;-77
2021/08/24 15:15:01;;;;;;;1.87;1.20;;;;;;;18.04;100.00;99667.59;4548426;77;28502;-79
2021/08/24 15:21:05;;;;;;;2.67;1.30;;;;;;;18.38;100.00;99670.72;4569601;77;28456;-79
2021/08/24 15:27:26;;;;;;;2.65;1.27;;;;;;;18.29;100.00;99674.20;4536338;76;28494;-80
2021/08/24 15:33:47;;;;;;;2.20;1.50;;;;;;;18.58;100.00;99665.59;4600534;76;28534;-79
2021/08/24 15:39:49;;;;;;;2.92;1.60;;;;;;;18.83;100.00;99678.43;4565322;76;28516;-79
2021/08/24 15:45:50;;;;;;;2.47;1.45;;;;;;;19.35;100.00;99679.83;4573531;77;28550;-79
2021/08/24 15:51:52;;;;;;;2.70;1.50;;;;;;;18.72;100.00;99678.95;4554928;76;28507;-80
2021/08/24 15:57:56;;;;;;;2.50;1.60;;;;;;;19.33;100.00;99682.02;4551015;76;28550;-80
2021/08/24 16:03:58;;;;;;;2.83;1.55;;;;;;;19.88;100.00;99678.08;4556947;76;28538;-79
2021/08/24 16:10:01;;;;;;;3.15;1.60;;;;;;;19.31;100.00;99683.65;4554274;76;28534;-77
2021/08/24 16:16:02;;;;;;;3.77;1.60;;;;;;;19.19;100.00;99681.75;4578276;76;28586;-79
2021/08/24 16:22:05;;;;;;;3.20;1.75;;;;;;;18.72;100.00;99691.77;4550435;77;28435;-78
2021/08/24 16:28:06;;;;;;;2.80;1.50;;;;;;;18.98;100.00;99690.42;4565810;76;28484;-77
2021/08/24 16:34:08;;;;;;;2.65;1.45;;;;;;;18.52;100.00;99694.14;4566267;76;28477;-77
2021/08/24 16:40:11;;;;;;;3.65;1.70;;;;;;;19.27;100.00;99692.11;4556307;76;28448;-77
2021/08/24 16:46:17;;;;;;;4.85;1.95;;;;;;;19.13;100.00;99703.27;4535819;77;28475;-77
2021/08/24 16:52:18;;;;;;;;;;;;;;;19.51;100.00;99697.80;4569969;76;28513;-77
2021/08/24 16:58:20;;;;;;;6.03;1.98;;;;;;;19.25;100.00;99698.36;4559538;76;20196;-77
2021/08/24 17:04:23;;;;;;;3.65;1.80;;;;;;;19.34;100.00;99709.55;4571576;77;28907;-76
2021/08/24 17:10:27;;;;;;;4.10;1.95;;;;;;;19.27;100.00;99707.11;4566398;76;28420;-77
2021/08/24 17:16:30;;;;;;;4.90;2.20;;;;;;;19.32;100.00;99700.27;4563863;76;28538;-77
2021/08/24 17:22:31;;;;;;;4.30;2.17;;;;;;;19.57;100.00;99710.87;4558174;76;28491;-76
2021/08/24 17:28:36;;;;;;;4.25;1.87;;;;;;;18.98;100.00;99714.41;4566914;76;28475;-76
2021/08/24 17:34:38;;;;;;;5.55;2.50;;;;;;;19.23;100.00;99710.92;4564743;76;28489;-77
2021/08/24 17:40:40;;;;;;;5.15;2.15;;;;;;;19.08;100.00;99713.09;4559273;76;28495;-77
2021/08/24 17:46:46;;;;;;;4.70;2.20;;;;;;;19.49;100.00;99712.25;4568758;77;28466;-77
2021/08/24 17:52:46;;;;;;;4.85;1.98;;;;;;;19.43;100.00;99707.92;4563061;76;28503;-77
2021/08/24 17:58:48;;;;;;;3.60;1.82;;;;;;;19.62;100.00;99714.98;4543882;76;28464;-77
2021/08/24 18:04:50;;;;;;;3.95;1.98;;;;;;;19.61;100.00;99722.89;4550030;76;28437;-76
2021/08/24 18:11:09;;;;;;;3.60;1.77;;;;;;;19.63;100.00;99720.70;4571430;76;28479;-76
2021/08/24 18:17:12;;;;;;;4.40;1.85;;;;;;;19.71;100.00;99728.06;4530294;77;28564;-76
2021/08/24 18:23:14;;;;;;;3.58;1.95;;;;;;;19.60;100.00;99743.08;4550360;77;28445;-76
2021/08/24 18:29:15;;;;;;;5.70;2.10;;;;;;;19.74;100.00;99741.98;4565450;76;28547;-75
2021/08/24 18:35:25;;;;;;;5.42;2.00;;;;;;;19.91;100.00;99744.39;4553473;76;28535;-76
2021/08/24 18:41:27;;;;;;;5.05;2.10;;;;;;;19.58;100.00;99758.07;4560810;76;28523;-76
2021/08/24 18:47:28;;;;;;;3.42;1.60;;;;;;;19.69;100.00;99746.06;4571494;76;28551;-75
2021/08/24 18:53:30;;;;;;;5.67;2.25;;;;;;;19.69;100.00;99746.62;4568781;76;28572;-76
2021/08/24 18:59:32;;;;;;;2.12;1.45;;;;;;;19.64;100.00;99753.70;4566930;76;28498;-75
2021/08/24 19:05:35;;;;;;;4.53;2.00;;;;;;;19.45;100.00;99757.53;4519323;77;28542;-75
2021/08/24 19:11:38;;;;;;;6.08;2.00;;;;;;;19.57;100.00;99748.26;4565123;76;28495;-76
2021/08/24 19:17:40;;;;;;;4.10;1.90;;;;;;;19.45;100.00;99756.70;4472165;77;28566;-75
2021/08/24 19:23:44;;;;;;;3.25;1.60;;;;;;;19.27;100.00;99760.80;4558493;76;28491;-74
2021/08/24 19:29:46;;;;;;;7.53;1.60;;;;;;;19.35;100.00;99750.72;4562732;76;28475;-75
2021/08/24 19:35:49;;;;;;;4.72;1.90;;;;;;;19.43;100.00;99743.89;4567525;76;28445;-75
2021/08/24 19:41:52;;;;;;;3.67;2.15;;;;;;;19.34;100.00;99745.80;4491114;77;28494;-76
2021/08/24 19:47:54;;;;;;;5.37;1.90;;;;;;;19.38;100.00;99741.19;4400729;79;28507;-75
2021/08/24 19:53:57;;;;;;;3.37;2.12;;;;;;;19.39;100.00;99745.55;4466639;77;28482;-76
2021/08/24 19:59:58;;;;;;;5.15;2.33;;;;;;;19.73;100.00;99736.78;4467533;77;28525;-76
2021/08/24 20:05:59;;;;;;;5.12;2.55;;;;;;;19.56;100.00;99741.97;4551113;77;28566;-82
2021/08/24 20:12:00;;;;;;;4.55;2.40;;;;;;;19.53;100.00;99732.19;4479195;77;28479;-81
2021/08/24 20:18:04;;;;;;;5.50;2.55;;;;;;;19.29;100.00;99742.25;4549998;76;28543;-81
2021/08/24 20:24:08;;;;;;;5.90;2.50;;;;;;;19.25;100.00;99742.53;4406138;79;28494;-77
2021/08/24 20:30:11;;;;;;;5.87;2.60;;;;;;;18.96;100.00;99745.20;4562990;77;28470;-80
2021/08/24 20:36:14;;;;;;;5.75;2.85;;;;;;;19.26;100.00;99740.88;4564005;76;28458;-75
2021/08/24 20:42:16;;;;;;;6.30;3.00;;;;;;;19.39;100.00;99741.45;4538955;76;28527;-80
2021/08/24 20:48:18;;;;;;;5.85;2.80;;;;;;;19.32;100.00;99737.64;4561569;76;28528;-78
2021/08/24 20:54:19;;;;;;;7.87;3.12;;;;;;;19.29;100.00;99734.91;4558185;76;28461;-79
2021/08/24 21:00:21;;;;;;;8.55;3.80;;;;;;;19.29;100.00;99733.55;4561015;76;28512;-79
2021/08/24 21:06:25;;;;;;;7.55;3.17;;;;;;;19.14;100.00;99731.63;4556949;76;28500;-79
2021/08/24 21:12:29;;;;;;;9.93;3.12;;;;;;;19.33;100.00;99726.44;4550738;76;28476;-80
2021/08/24 21:18:31;;;;;;;6.40;3.10;;;;;;;19.18;100.00;99724.53;4569357;76;28486;-80
2021/08/24 21:24:33;;;;;;;7.70;3.52;;;;;;;19.04;100.00;99723.44;4560971;76;28463;-79
2021/08/24 21:30:40;;;;;;;8.95;3.40;;;;;;;19.02;100.00;99721.53;4521912;77;28486;-80
2021/08/24 21:36:42;;;;;;;6.53;3.15;;;;;;;18.62;100.00;99722.50;4409595;79;28510;-79
2021/08/24 21:42:44;;;;;;;5.33;3.00;;;;;;;18.76;100.00;99720.91;4415679;79;28519;-79
2021/08/24 21:48:45;;;;;;;6.25;3.22;;;;;;;18.51;100.00;99727.91;4437934;79;28557;-79
2021/08/24 21:54:47;;;;;;;5.33;2.87;;;;;;;18.06;100.00;99732.08;4435115;79;28480;-79
2021/08/24 22:00:49;;;;;;;8.20;3.58;;;;;;;18.11;100.00;99730.20;4430044;79;28449;-81
2021/08/24 22:06:51;;;;;;;7.47;3.67;;;;;;;17.99;100.00;99729.57;4392814;79;28476;-79
2021/08/24 22:12:52;;;;;;;8.70;3.45;;;;;;;17.62;100.00;99724.97;4414215;79;28541;-80
2021/08/24 22:18:54;;;;;;;7.00;3.40;;;;;;;17.58;100.00;99730.67;4398887;79;28451;-80
2021/08/24 22:24:56;;;;;;;7.72;3.08;;;;;;;17.43;100.00;99726.73;4427168;79;28466;-80
2021/08/24 22:30:58;;;;;;;6.87;3.27;;;;;;;17.56;100.00;99717.33;4419569;79;28487;-81
2021/08/24 22:37:12;;;;;;;9.23;3.67;;;;;;;17.33;100.00;99711.18;4509413;76;28538;-81
2021/08/24 22:43:14;;;;;;;7.00;2.98;;;;;;;17.42;100.00;99712.87;4480128;79;28525;-81
2021/08/24 22:49:18;;;;;;;6.60;3.35;;;;;;;16.57;100.00;99711.51;4568272;76;28457;-81
2021/08/24 22:55:19;;;;;;;7.83;3.42;;;;;;;16.42;100.00;99715.70;4514820;78;28520;-80
2021/08/24 23:01:20;;;;;;;7.28;3.33;;;;;;;16.40;100.00;99704.81;4555459;77;28512;-80
2021/08/24 23:07:22;;;;;;;7.40;3.45;;;;;;;16.98;100.00;99701.63;4556180;78;28453;-80
2021/08/24 23:13:24;;;;;;;8.35;3.65;;;;;;;17.04;100.00;99697.89;4557337;78;28475;-80
2021/08/24 23:19:26;;;;;;;10.38;3.80;;;;;;;16.89;100.00;99701.80;4557471;78;28483;-80
2021/08/24 23:25:27;;;;;;;9.03;3.80;;;;;;;16.37;100.00;99697.98;4557374;78;28574;-79
2021/08/24 23:31:29;;;;;;;10.55;3.80;;;;;;;16.09;100.00;99692.22;4562983;77;28452;-79
2021/08/24 23:37:30;;;;;;;7.25;3.52;;;;;;;16.00;100.00;99696.72;4575260;76;28607;-80
2021/08/24 23:43:31;;;;;;;8.40;3.60;;;;;;;15.81;100.00;99698.05;4556543;77;28532;-80
2021/08/24 23:49:33;;;;;;;10.53;4.10;;;;;;;15.61;100.00;99685.32;4591744;77;28617;-80
2021/08/24 23:55:35;;;;;;;10.32;3.42;;;;;;;15.61;100.00;99683.97;4592022;77;28504;-81
